Time;durP1;ratioP1;P1;durP2;ratioP2;P2;SDS_P1;SDS_P2;PMS_P1;PMS_P2;Temp;Humidity;BMP_temperature;BMP_pressure;BME280_temperature;BME280_humidity;BME280_pressure;Samples;Min_cycle;Max_cycle;Signal;HPM_P1;HPM_P2
2023/04/23 00:00:48;;;;;;;93.43;6.70;;;;;;;;;;4986312;28;20053;-59
2023/04/23 00:03:16;;;;;;;105.22;7.20;;;;;;;;;;4984374;28;20029;-57
2023/04/23 00:05:43;;;;;;;93.25;6.70;;;;;;;;;;4982469;28;20045;-60
2023/04/23 00:08:09;;;;;;;83.18;6.32;;;;;;;;;;4983968;28;20019;-56
2023/04/23 00:10:34;;;;;;;80.15;6.40;;;;;;;;;;4954020;28;20030;-60
2023/04/23 00:13:00;;;;;;;118.60;7.85;;;;;;;;;;4983437;28;20026;-57
2023/04/23 00:15:25;;;;;;;106.78;7.20;;;;;;;;;;4982351;28;20156;-58
2023/04/23 00:17:51;;;;;;;95.03;6.57;;;;;;;;;;4984134;28;20034;-56
2023/04/23 00:20:16;;;;;;;109.00;7.57;;;;;;;;;;4984741;28;20022;-58
2023/04/23 00:22:42;;;;;;;76.90;6.25;;;;;;;;;;4983515;28;20607;-56
2023/04/23 00:25:08;;;;;;;112.60;7.63;;;;;;;;;;4981788;28;20050;-57
2023/04/23 00:27:33;;;;;;;99.25;6.97;;;;;;;;;;4983795;28;20140;-58
2023/04/23 00:29:58;;;;;;;88.57;6.63;;;;;;;;;;4984512;28;20026;-59
2023/04/23 00:32:24;;;;;;;136.90;8.37;;;;;;;;;;4984554;28;20046;-56
2023/04/23 00:34:49;;;;;;;101.22;7.32;;;;;;;;;;4983584;28;20356;-58
2023/04/23 00:37:15;;;;;;;98.57;7.10;;;;;;;;;;4983256;28;20591;-59
2023/04/23 00:39:40;;;;;;;95.82;7.03;;;;;;;;;;4985063;28;20037;-60
2023/04/23 00:42:11;;;;;;;123.95;8.55;;;;;;;;;;4982543;28;20042;-60
2023/04/23 00:44:36;;;;;;;109.45;7.53;;;;;;;;;;4985104;28;20484;-58
2023/04/23 00:47:02;;;;;;;94.88;6.95;;;;;;;;;;4983521;28;20504;-56
2023/04/23 00:49:27;;;;;;;82.95;6.50;;;;;;;;;;4983961;28;20022;-58
2023/04/23 00:51:52;;;;;;;113.97;8.20;;;;;;;;;;4982021;28;20701;-56
2023/04/23 00:54:18;;;;;;;89.60;7.17;;;;;;;;;;4974819;28;20075;-59
2023/04/23 00:56:43;;;;;;;99.65;7.32;;;;;;;;;;4982965;28;20277;-58
2023/04/23 00:59:08;;;;;;;100.07;7.28;;;;;;;;;;4984060;28;20400;-57
2023/04/23 01:01:34;;;;;;;104.40;7.43;;;;;;;;;;4983421;28;20063;-59
2023/04/23 01:03:59;;;;;;;123.15;7.90;;;;;;;;;;4966734;28;20122;-60
2023/04/23 01:06:27;;;;;;;88.95;7.15;;;;;;;;;;4983388;28;20040;-58
2023/04/23 01:08:52;;;;;;;86.07;6.93;;;;;;;;;;4982594;28;20041;-58
2023/04/23 01:11:18;;;;;;;105.70;7.55;;;;;;;;;;4982928;28;20349;-59
2023/04/23 01:13:43;;;;;;;165.90;9.95;;;;;;;;;;4981041;28;20440;-60
2023/04/23 01:16:09;;;;;;;93.43;7.30;;;;;;;;;;4981882;28;20030;-57
2023/04/23 01:18:35;;;;;;;99.00;7.50;;;;;;;;;;4986199;28;20018;-59
2023/04/23 01:21:00;;;;;;;88.57;6.85;;;;;;;;;;4983951;28;20493;-57
2023/04/23 01:23:26;;;;;;;121.35;8.40;;;;;;;;;;4983117;28;20563;-56
2023/04/23 01:25:52;;;;;;;86.03;6.75;;;;;;;;;;4983185;28;20145;-58
2023/04/23 01:28:17;;;;;;;95.43;7.45;;;;;;;;;;4982709;28;20203;-58
2023/04/23 01:30:43;;;;;;;96.03;7.22;;;;;;;;;;4969943;28;20035;-57
2023/04/23 01:33:09;;;;;;;92.43;7.25;;;;;;;;;;4983395;28;20443;-56
2023/04/23 01:35:35;;;;;;;109.70;7.40;;;;;;;;;;4981219;28;20365;-57
2023/04/23 01:38:01;;;;;;;86.28;6.93;;;;;;;;;;4983947;28;20025;-59
2023/04/23 01:40:26;;;;;;;98.38;7.47;;;;;;;;;;4983559;28;20030;-60
2023/04/23 01:42:52;;;;;;;119.22;7.93;;;;;;;;;;4983759;28;20383;-60
2023/04/23 01:45:18;;;;;;;99.80;7.30;;;;;;;;;;4981096;28;20018;-58
2023/04/23 01:47:44;;;;;;;97.95;7.40;;;;;;;;;;4985080;28;20031;-59
2023/04/23 01:50:09;;;;;;;89.28;6.90;;;;;;;;;;4983626;28;20547;-60
2023/04/23 01:52:35;;;;;;;84.03;6.78;;;;;;;;;;4982992;28;20116;-60
2023/04/23 01:55:01;;;;;;;91.75;7.05;;;;;;;;;;4981709;28;20029;-58
2023/04/23 01:57:26;;;;;;;89.28;7.15;;;;;;;;;;4982088;28;20034;-56
2023/04/23 01:59:56;;;;;;;95.22;7.15;;;;;;;;;;4982798;28;20077;-57
2023/04/23 02:02:21;;;;;;;149.18;9.35;;;;;;;;;;4981229;28;20061;-57
2023/04/23 02:04:47;;;;;;;101.67;7.57;;;;;;;;;;4981223;28;20112;-58
2023/04/23 02:07:12;;;;;;;122.90;8.00;;;;;;;;;;4979877;28;20064;-56
2023/04/23 02:09:38;;;;;;;109.03;7.88;;;;;;;;;;4982479;28;20018;-58
2023/04/23 02:12:04;;;;;;;88.80;7.53;;;;;;;;;;4981701;28;20518;-59
2023/04/23 02:14:29;;;;;;;113.82;7.97;;;;;;;;;;4985670;28;20086;-58
2023/04/23 02:16:55;;;;;;;111.10;7.93;;;;;;;;;;4983952;28;20042;-58
2023/04/23 02:19:20;;;;;;;89.78;7.15;;;;;;;;;;4984893;28;20270;-59
2023/04/23 02:21:46;;;;;;;118.80;8.20;;;;;;;;;;4986319;28;20410;-57
2023/04/23 02:24:11;;;;;;;101.53;7.60;;;;;;;;;;4986333;28;20038;-57
2023/04/23 02:26:36;;;;;;;98.13;7.55;;;;;;;;;;4984744;28;20035;-59
2023/04/23 02:29:02;;;;;;;93.23;7.43;;;;;;;;;;4986470;28;20107;-58
2023/04/23 02:31:27;;;;;;;102.30;7.70;;;;;;;;;;4984093;28;20356;-60
2023/04/23 02:33:52;;;;;;;165.75;10.40;;;;;;;;;;4969587;28;20407;-59
2023/04/23 02:36:17;;;;;;;112.93;8.13;;;;;;;;;;4983578;28;20586;-56
2023/04/23 02:38:44;;;;;;;87.33;6.97;;;;;;;;;;4984490;28;20619;-58
2023/04/23 02:41:10;;;;;;;102.32;7.78;;;;;;;;;;4985693;28;20356;-57
2023/04/23 02:43:35;;;;;;;96.47;7.28;;;;;;;;;;4984723;28;20345;-59
2023/04/23 02:46:06;;;;;;;110.30;8.02;;;;;;;;;;4983204;28;20585;-59
2023/04/23 02:48:33;;;;;;;88.80;7.15;;;;;;;;;;4985857;28;20484;-58
2023/04/23 02:50:58;;;;;;;83.53;6.90;;;;;;;;;;4985214;28;20129;-60
2023/04/23 02:53:24;;;;;;;108.75;8.05;;;;;;;;;;4985149;28;20044;-57
2023/04/23 02:55:49;;;;;;;84.10;6.97;;;;;;;;;;4984112;28;20030;-56
2023/04/23 02:58:14;;;;;;;106.80;7.90;;;;;;;;;;4985367;28;20030;-58
2023/04/23 03:00:40;;;;;;;89.35;7.22;;;;;;;;;;4985864;28;20288;-56
2023/04/23 03:03:05;;;;;;;102.22;7.75;;;;;;;;;;4983388;28;20029;-59
2023/04/23 03:05:30;;;;;;;109.57;8.15;;;;;;;;;;4986070;28;20519;-57
2023/04/23 03:07:56;;;;;;;102.28;7.90;;;;;;;;;;4986993;28;20487;-56
2023/04/23 03:10:21;;;;;;;103.00;8.23;;;;;;;;;;4984801;28;20030;-56
2023/04/23 03:12:46;;;;;;;130.30;9.40;;;;;;;;;;4984849;28;20253;-56
2023/04/23 03:15:12;;;;;;;93.43;8.32;;;;;;;;;;4985117;28;20244;-60
2023/04/23 03:17:37;;;;;;;96.00;7.93;;;;;;;;;;4987079;28;20364;-56
2023/04/23 03:20:02;;;;;;;96.40;8.32;;;;;;;;;;4986826;28;20598;-58
2023/04/23 03:22:28;;;;;;;137.93;9.32;;;;;;;;;;4982514;28;20035;-59
2023/04/23 03:24:53;;;;;;;113.40;8.77;;;;;;;;;;4984169;28;20035;-59
2023/04/23 03:27:18;;;;;;;106.50;8.40;;;;;;;;;;4983022;28;20681;-59
2023/04/23 03:29:43;;;;;;;99.35;7.90;;;;;;;;;;4984393;28;20080;-57
2023/04/23 03:32:09;;;;;;;118.22;9.05;;;;;;;;;;4984885;28;20034;-56
2023/04/23 03:34:34;;;;;;;83.28;7.63;;;;;;;;;;4985641;28;20133;-59
2023/04/23 03:36:59;;;;;;;97.47;7.80;;;;;;;;;;4985197;28;20099;-56
2023/04/23 03:39:25;;;;;;;99.53;7.97;;;;;;;;;;4984359;28;20818;-60
2023/04/23 03:41:50;;;;;;;111.47;8.33;;;;;;;;;;4981385;28;20256;-57
2023/04/23 03:44:15;;;;;;;115.35;8.63;;;;;;;;;;4982395;28;20629;-59
2023/04/23 03:46:40;;;;;;;95.43;8.02;;;;;;;;;;4983142;28;20521;-58
2023/04/23 03:49:06;;;;;;;109.65;8.20;;;;;;;;;;4982507;28;20358;-57
2023/04/23 03:51:31;;;;;;;123.93;8.50;;;;;;;;;;4967651;28;20080;-59
2023/04/23 03:53:56;;;;;;;108.60;8.40;;;;;;;;;;4982990;28;20614;-57
2023/04/23 03:56:21;;;;;;;91.33;7.47;;;;;;;;;;4983300;28;20567;-58
2023/04/23 03:58:47;;;;;;;112.22;8.35;;;;;;;;;;4982904;28;20257;-57
2023/04/23 04:01:12;;;;;;;106.15;7.85;;;;;;;;;;4983621;28;20184;-58
2023/04/23 04:03:37;;;;;;;117.70;8.63;;;;;;;;;;4982284;28;20399;-57
2023/04/23 04:06:03;;;;;;;101.77;7.70;;;;;;;;;;4982005;28;20038;-58
2023/04/23 04:08:28;;;;;;;97.65;7.47;;;;;;;;;;4982821;28;20272;-58
2023/04/23 04:10:54;;;;;;;104.30;7.75;;;;;;;;;;4983280;28;20046;-57
2023/04/23 04:13:19;;;;;;;95.28;6.85;;;;;;;;;;4985469;28;20447;-59
2023/04/23 04:15:44;;;;;;;99.10;7.40;;;;;;;;;;4982967;28;20113;-57
2023/04/23 04:18:09;;;;;;;115.70;8.15;;;;;;;;;;4984782;28;20108;-58
2023/04/23 04:20:35;;;;;;;91.33;7.20;;;;;;;;;;4983210;28;20022;-57
2023/04/23 04:23:00;;;;;;;99.30;7.85;;;;;;;;;;4982277;28;20684;-56
2023/04/23 04:25:27;;;;;;;107.78;7.93;;;;;;;;;;4983398;28;20014;-58
2023/04/23 04:27:52;;;;;;;91.30;7.15;;;;;;;;;;4983182;28;20574;-59
2023/04/23 04:30:18;;;;;;;106.37;8.00;;;;;;;;;;4982792;28;20145;-58
2023/04/23 04:32:44;;;;;;;78.07;6.77;;;;;;;;;;4985168;28;21027;-56
2023/04/23 04:35:11;;;;;;;96.82;7.40;;;;;;;;;;4983790;28;20273;-57
2023/04/23 04:37:36;;;;;;;89.60;7.53;;;;;;;;;;4983605;28;20022;-58
2023/04/23 04:40:02;;;;;;;81.15;7.57;;;;;;;;;;4983215;28;20373;-60
2023/04/23 04:42:27;;;;;;;124.75;8.95;;;;;;;;;;4981089;28;20539;-57
2023/04/23 04:44:53;;;;;;;107.77;8.50;;;;;;;;;;4982603;28;20038;-58
2023/04/23 04:47:18;;;;;;;81.18;7.25;;;;;;;;;;4985023;28;20300;-59
2023/04/23 04:49:43;;;;;;;122.25;9.32;;;;;;;;;;4985769;28;20076;-58
2023/04/23 04:52:09;;;;;;;112.57;8.55;;;;;;;;;;4981897;28;20045;-59
2023/04/23 04:54:34;;;;;;;96.63;7.88;;;;;;;;;;4983994;28;20567;-59
2023/04/23 04:57:01;;;;;;;128.07;8.53;;;;;;;;;;4982659;28;20130;-58
2023/04/23 04:59:26;;;;;;;97.78;6.68;;;;;;;;;;4984701;28;20311;-57
2023/04/23 05:01:51;;;;;;;118.80;8.43;;;;;;;;;;4982671;28;20349;-59
2023/04/23 05:04:17;;;;;;;111.13;8.00;;;;;;;;;;4982142;28;20105;-58
2023/04/23 05:06:42;;;;;;;82.55;6.20;;;;;;;;;;4981285;28;20531;-58
2023/04/23 05:09:07;;;;;;;116.30;7.97;;;;;;;;;;4982574;28;20109;-60
2023/04/23 05:11:34;;;;;;;113.47;8.48;;;;;;;;;;4981160;28;20030;-57
2023/04/23 05:13:59;;;;;;;104.90;7.68;;;;;;;;;;4980349;28;20030;-59
2023/04/23 05:16:25;;;;;;;106.53;8.48;;;;;;;;;;4981130;28;20548;-57
2023/04/23 05:18:50;;;;;;;104.38;8.13;;;;;;;;;;4982431;28;20290;-60
2023/04/23 05:21:16;;;;;;;123.47;8.85;;;;;;;;;;4982355;28;20129;-60
2023/04/23 05:23:41;;;;;;;156.88;10.60;;;;;;;;;;4981230;28;20593;-60
2023/04/23 05:26:06;;;;;;;91.43;7.83;;;;;;;;;;4982085;28;20044;-60
2023/04/23 05:28:32;;;;;;;118.28;8.15;;;;;;;;;;4983269;28;20257;-60
2023/04/23 05:30:57;;;;;;;94.40;7.80;;;;;;;;;;4981577;28;20053;-59
2023/04/23 05:33:22;;;;;;;107.38;8.60;;;;;;;;;;4982288;28;20034;-59
2023/04/23 05:35:47;;;;;;;128.60;9.23;;;;;;;;;;4980560;28;20034;-61
2023/04/23 05:38:13;;;;;;;103.20;8.20;;;;;;;;;;4985065;28;20560;-59
2023/04/23 05:40:38;;;;;;;92.73;8.30;;;;;;;;;;4982635;28;20747;-57
2023/04/23 05:43:03;;;;;;;86.85;8.18;;;;;;;;;;4982997;28;20704;-61
2023/04/23 05:45:29;;;;;;;97.53;8.27;;;;;;;;;;4983806;28;20019;-59
2023/04/23 05:47:54;;;;;;;117.07;9.17;;;;;;;;;;4985256;28;20287;-59
2023/04/23 05:50:20;;;;;;;102.85;7.97;;;;;;;;;;4986941;28;20312;-60
2023/04/23 05:52:45;;;;;;;80.60;7.63;;;;;;;;;;4985580;28;21057;-60
2023/04/23 05:55:10;;;;;;;95.70;8.15;;;;;;;;;;4986051;28;20022;-57
2023/04/23 05:57:36;;;;;;;100.38;8.32;;;;;;;;;;4986860;28;20046;-59
2023/04/23 06:00:02;;;;;;;88.93;7.65;;;;;;;;;;4985994;28;20587;-59
2023/04/23 06:02:28;;;;;;;135.27;9.35;;;;;;;;;;4985635;28;20448;-58
2023/04/23 06:04:53;;;;;;;101.05;8.68;;;;;;;;;;4986242;28;20104;-58
2023/04/23 06:07:18;;;;;;;105.13;8.45;;;;;;;;;;4985221;28;20521;-60
2023/04/23 06:09:43;;;;;;;99.43;8.32;;;;;;;;;;4986130;28;20101;-59
2023/04/23 06:12:09;;;;;;;110.33;8.67;;;;;;;;;;4984330;28;20070;-59
2023/04/23 06:14:35;;;;;;;104.05;8.20;;;;;;;;;;4986096;28;20332;-58
2023/04/23 06:17:00;;;;;;;104.82;8.68;;;;;;;;;;4986253;28;20046;-60
2023/04/23 06:19:26;;;;;;;107.15;8.90;;;;;;;;;;4986854;28;20407;-58
2023/04/23 06:21:51;;;;;;;111.75;8.75;;;;;;;;;;4986020;28;20183;-60
2023/04/23 06:24:17;;;;;;;103.57;8.93;;;;;;;;;;4982251;28;20019;-59
2023/04/23 06:26:42;;;;;;;120.00;9.53;;;;;;;;;;4985087;28;20451;-59
2023/04/23 06:29:07;;;;;;;87.83;8.43;;;;;;;;;;4985750;28;20266;-58
2023/04/23 06:31:32;;;;;;;105.97;8.07;;;;;;;;;;4984967;28;20265;-59
2023/04/23 06:33:58;;;;;;;117.53;9.57;;;;;;;;;;4984935;28;20256;-59
2023/04/23 06:36:23;;;;;;;74.50;8.50;;;;;;;;;;4987100;28;20204;-60
2023/04/23 06:38:48;;;;;;;108.03;10.27;;;;;;;;;;4986640;28;20257;-61
2023/04/23 06:41:14;;;;;;;104.22;9.90;;;;;;;;;;4986366;28;20270;-57
2023/04/23 06:43:39;;;;;;;115.05;10.18;;;;;;;;;;4985705;28;20515;-57
2023/04/23 06:46:05;;;;;;;141.82;11.45;;;;;;;;;;4984797;28;20073;-58
2023/04/23 06:48:31;;;;;;;98.20;10.33;;;;;;;;;;4983790;28;20018;-60
2023/04/23 06:50:56;;;;;;;90.47;9.25;;;;;;;;;;4983634;28;21173;-57
2023/04/23 06:53:21;;;;;;;123.68;10.63;;;;;;;;;;4986134;28;20034;-58
2023/04/23 06:55:48;;;;;;;102.30;9.60;;;;;;;;;;4983768;28;20129;-58
2023/04/23 06:58:13;;;;;;;113.88;10.25;;;;;;;;;;4984400;28;20246;-58
2023/04/23 07:00:39;;;;;;;83.10;9.32;;;;;;;;;;4985990;28;20303;-58
2023/04/23 07:03:05;;;;;;;81.72;9.82;;;;;;;;;;5014351;28;20424;-58
2023/04/23 07:05:30;;;;;;;95.38;10.10;;;;;;;;;;4987845;28;20495;-58
2023/04/23 07:07:55;;;;;;;67.17;8.73;;;;;;;;;;4986877;28;20484;-59
2023/04/23 07:10:20;;;;;;;80.57;8.47;;;;;;;;;;4986533;28;20638;-60
2023/04/23 07:12:47;;;;;;;109.70;9.50;;;;;;;;;;4987243;28;20319;-60
2023/04/23 07:15:12;;;;;;;71.32;7.22;;;;;;;;;;4986985;28;20108;-59
2023/04/23 07:17:37;;;;;;;81.40;9.48;;;;;;;;;;4987557;28;20036;-57
2023/04/23 07:20:07;;;;;;;74.90;7.07;;;;;;;;;;4987307;28;20019;-58
2023/04/23 07:22:33;;;;;;;74.90;8.60;;;;;;;;;;4985455;28;20119;-59
2023/04/23 07:24:58;;;;;;;102.60;8.27;;;;;;;;;;4987827;28;20034;-59
2023/04/23 07:27:23;;;;;;;83.72;8.00;;;;;;;;;;4986782;28;20129;-60
2023/04/23 07:29:49;;;;;;;88.07;8.77;;;;;;;;;;4985700;28;20018;-57
2023/04/23 07:32:14;;;;;;;108.15;8.60;;;;;;;;;;4985316;28;20120;-59
2023/04/23 07:34:39;;;;;;;81.90;7.65;;;;;;;;;;4987232;28;20420;-57
2023/04/23 07:37:05;;;;;;;99.90;8.10;;;;;;;;;;4987033;28;20454;-59
2023/04/23 07:39:31;;;;;;;95.32;8.30;;;;;;;;;;4986574;28;20684;-57
2023/04/23 07:41:57;;;;;;;72.82;7.32;;;;;;;;;;4987424;28;20042;-58
2023/04/23 07:44:22;;;;;;;97.07;8.43;;;;;;;;;;4987889;28;20065;-57
2023/04/23 07:46:47;;;;;;;78.13;7.50;;;;;;;;;;4986443;28;20430;-59
2023/04/23 07:49:13;;;;;;;87.67;7.90;;;;;;;;;;4985365;28;21015;-57
2023/04/23 07:51:38;;;;;;;80.70;7.47;;;;;;;;;;4987556;28;20858;-57
2023/04/23 07:54:03;;;;;;;84.18;8.07;;;;;;;;;;4987092;28;20033;-57
2023/04/23 07:56:31;;;;;;;94.65;8.40;;;;;;;;;;4986334;28;20501;-59
2023/04/23 07:58:57;;;;;;;68.00;7.22;;;;;;;;;;4988358;28;20034;-59
2023/04/23 08:01:22;;;;;;;70.68;6.18;;;;;;;;;;4986120;28;20745;-59
2023/04/23 08:03:47;;;;;;;125.55;9.13;;;;;;;;;;4987812;28;20034;-62
2023/04/23 08:06:13;;;;;;;73.70;6.50;;;;;;;;;;4987075;28;20130;-62
2023/04/23 08:08:38;;;;;;;84.30;6.75;;;;;;;;;;4986567;28;20495;-56
2023/04/23 08:11:06;;;;;;;72.03;6.93;;;;;;;;;;4987589;28;20034;-59
2023/04/23 08:13:32;;;;;;;86.00;7.30;;;;;;;;;;4985888;28;20273;-57
2023/04/23 08:15:57;;;;;;;88.15;7.55;;;;;;;;;;4985891;28;20057;-59
2023/04/23 08:18:22;;;;;;;69.50;6.93;;;;;;;;;;4986320;28;20027;-56
2023/04/23 08:20:48;;;;;;;63.70;6.40;;;;;;;;;;4987656;28;20327;-59
2023/04/23 08:23:13;;;;;;;75.88;6.95;;;;;;;;;;4986317;28;20706;-56
2023/04/23 08:25:38;;;;;;;77.87;7.27;;;;;;;;;;4984715;28;20076;-59
2023/04/23 08:28:04;;;;;;;83.50;7.32;;;;;;;;;;4984746;28;20670;-59
2023/04/23 08:30:29;;;;;;;79.90;7.10;;;;;;;;;;4986377;28;20137;-59
2023/04/23 08:32:54;;;;;;;75.80;7.07;;;;;;;;;;4985555;28;20348;-60
2023/04/23 08:35:20;;;;;;;120.55;8.75;;;;;;;;;;4987268;28;20018;-60
2023/04/23 08:37:45;;;;;;;65.03;5.70;;;;;;;;;;4986241;28;20053;-59
2023/04/23 08:40:12;;;;;;;74.43;6.60;;;;;;;;;;4985668;28;20072;-58
2023/04/23 08:42:37;;;;;;;104.90;6.80;;;;;;;;;;4986339;28;20288;-57
2023/04/23 08:45:02;;;;;;;84.45;6.68;;;;;;;;;;4985378;28;20446;-58
2023/04/23 08:47:28;;;;;;;82.60;6.53;;;;;;;;;;4984743;28;20034;-59
2023/04/23 08:49:54;;;;;;;68.72;5.45;;;;;;;;;;4984154;28;20358;-59
2023/04/23 08:52:23;;;;;;;140.88;8.90;;;;;;;;;;4983818;28;20058;-58
2023/04/23 08:54:51;;;;;;;86.03;6.63;;;;;;;;;;4985889;28;20025;-60
2023/04/23 08:57:16;;;;;;;105.40;7.10;;;;;;;;;;4982052;28;20368;-59
2023/04/23 08:59:44;;;;;;;74.63;5.18;;;;;;;;;;4984548;28;20128;-58
2023/04/23 09:02:10;;;;;;;79.55;5.70;;;;;;;;;;4987082;28;20037;-60
2023/04/23 09:04:36;;;;;;;78.22;6.28;;;;;;;;;;4984586;28;20026;-61
2023/04/23 09:07:01;;;;;;;99.22;6.78;;;;;;;;;;4985248;28;20241;-60
2023/04/23 09:09:28;;;;;;;77.35;5.68;;;;;;;;;;4985759;28;20385;-59
2023/04/23 09:11:54;;;;;;;66.28;5.13;;;;;;;;;;4985756;28;20030;-61
2023/04/23 09:14:23;;;;;;;85.97;6.13;;;;;;;;;;4984150;28;20018;-60
2023/04/23 09:16:49;;;;;;;76.50;5.57;;;;;;;;;;4984498;28;20038;-59
2023/04/23 09:19:16;;;;;;;81.97;5.97;;;;;;;;;;4970732;28;20030;-60
2023/04/23 09:21:42;;;;;;;66.40;5.28;;;;;;;;;;4984532;28;20486;-58
2023/04/23 09:24:13;;;;;;;88.15;6.03;;;;;;;;;;4984619;28;20034;-57
2023/04/23 09:26:48;;;;;;;79.57;5.78;;;;;;;;;;4982531;28;20133;-59
2023/04/23 09:29:17;;;;;;;78.22;5.45;;;;;;;;;;4982405;28;20021;-59
2023/04/23 09:31:43;;;;;;;94.28;5.95;;;;;;;;;;4985819;28;20103;-57
2023/04/23 09:34:08;;;;;;;87.53;6.32;;;;;;;;;;4985757;28;20018;-59
2023/04/23 09:36:35;;;;;;;95.68;6.68;;;;;;;;;;4971064;28;20112;-58
2023/04/23 09:39:00;;;;;;;81.43;5.68;;;;;;;;;;4986230;28;20041;-59
2023/04/23 09:41:26;;;;;;;61.60;5.00;;;;;;;;;;4985379;28;20698;-60
2023/04/23 09:43:52;;;;;;;151.73;8.63;;;;;;;;;;4984009;28;20285;-58
2023/04/23 09:46:18;;;;;;;74.18;5.75;;;;;;;;;;4984956;28;20137;-60
2023/04/23 09:48:43;;;;;;;66.07;5.10;;;;;;;;;;4985995;28;20133;-60
2023/04/23 09:51:12;;;;;;;81.55;5.57;;;;;;;;;;4985980;28;20039;-59
2023/04/23 09:53:42;;;;;;;86.50;5.68;;;;;;;;;;4984468;28;20114;-56
2023/04/23 09:56:07;;;;;;;149.18;8.73;;;;;;;;;;4982860;28;20087;-57
2023/04/23 09:58:32;;;;;;;80.82;5.43;;;;;;;;;;4982892;28;20173;-60
2023/04/23 10:01:07;;;;;;;72.28;6.30;;;;;;;;;;4982275;28;20046;-59
2023/04/23 10:03:33;;;;;;;76.05;5.60;;;;;;;;;;4984866;28;20018;-57
2023/04/23 10:05:58;;;;;;;79.15;5.63;;;;;;;;;;4985189;28;20034;-57
2023/04/23 10:08:24;;;;;;;77.30;5.47;;;;;;;;;;4984646;28;20403;-59
2023/04/23 10:10:50;;;;;;;82.88;5.65;;;;;;;;;;4985610;28;20062;-59
2023/04/23 10:13:16;;;;;;;85.93;5.85;;;;;;;;;;4985578;28;20105;-59
2023/04/23 10:15:41;;;;;;;83.75;5.85;;;;;;;;;;4982749;28;20065;-57
2023/04/23 10:18:07;;;;;;;70.97;5.18;;;;;;;;;;4984046;28;20118;-60
2023/04/23 10:20:33;;;;;;;91.18;5.95;;;;;;;;;;4985095;28;20034;-56
2023/04/23 10:22:58;;;;;;;72.32;5.30;;;;;;;;;;4985003;28;20076;-57
2023/04/23 10:25:24;;;;;;;75.63;5.53;;;;;;;;;;4984327;28;20121;-57
2023/04/23 10:27:51;;;;;;;73.57;5.22;;;;;;;;;;5019399;28;20375;-61
2023/04/23 10:30:16;;;;;;;76.70;5.55;;;;;;;;;;4983515;28;20032;-60
2023/04/23 10:32:42;;;;;;;64.75;4.85;;;;;;;;;;4983216;28;20018;-58
2023/04/23 10:35:08;;;;;;;132.45;8.07;;;;;;;;;;4985152;28;20019;-59
2023/04/23 10:37:34;;;;;;;67.30;4.80;;;;;;;;;;4987314;28;20095;-58
2023/04/23 10:40:07;;;;;;;89.65;5.70;;;;;;;;;;4985856;28;20053;-59
2023/04/23 10:42:33;;;;;;;75.97;5.13;;;;;;;;;;4987126;28;20044;-61
2023/04/23 10:44:58;;;;;;;69.07;5.03;;;;;;;;;;4987799;28;20037;-60
2023/04/23 10:47:23;;;;;;;102.33;6.07;;;;;;;;;;4988142;28;20030;-59
2023/04/23 10:49:48;;;;;;;52.78;3.95;;;;;;;;;;4987415;28;20273;-62
2023/04/23 10:52:15;;;;;;;110.37;6.83;;;;;;;;;;4986059;28;20107;-59
2023/04/23 10:54:47;;;;;;;77.32;5.03;;;;;;;;;;4987613;28;21210;-61
2023/04/23 10:57:12;;;;;;;76.80;5.20;;;;;;;;;;4987760;28;20746;-58
2023/04/23 10:59:38;;;;;;;72.22;5.05;;;;;;;;;;4988169;28;20190;-59
2023/04/23 11:02:11;;;;;;;78.60;4.90;;;;;;;;;;4988001;28;20052;-57
2023/04/23 11:04:41;;;;;;;86.03;5.28;;;;;;;;;;4984909;28;20053;-61
2023/04/23 11:07:07;;;;;;;81.38;5.07;;;;;;;;;;4986880;28;20126;-61
2023/04/23 11:09:35;;;;;;;74.25;4.93;;;;;;;;;;4986150;28;20096;-60
2023/04/23 11:12:01;;;;;;;71.30;4.75;;;;;;;;;;4986939;28;20041;-60
2023/04/23 11:14:33;;;;;;;70.00;4.53;;;;;;;;;;4986456;28;20022;-59
2023/04/23 11:16:58;;;;;;;;;;;;;;;;;;4987097;28;20042;-60
2023/04/23 11:19:24;;;;;;;65.20;4.13;;;;;;;;;;4986915;28;19913;-60
2023/04/23 11:21:59;;;;;;;74.05;4.90;;;;;;;;;;4987451;28;20727;-59
2023/04/23 11:24:27;;;;;;;72.47;4.72;;;;;;;;;;4985213;28;20588;-61
2023/04/23 11:26:53;;;;;;;72.10;5.05;;;;;;;;;;4986376;28;20042;-60
2023/04/23 11:29:20;;;;;;;68.72;4.80;;;;;;;;;;4988860;28;20365;-61
2023/04/23 11:31:46;;;;;;;74.95;4.93;;;;;;;;;;4987286;28;20061;-59
2023/04/23 11:34:11;;;;;;;87.20;5.57;;;;;;;;;;4984931;28;20050;-61
2023/04/23 11:36:37;;;;;;;69.53;4.63;;;;;;;;;;4988800;28;20463;-60
2023/04/23 11:39:03;;;;;;;76.82;4.78;;;;;;;;;;4986905;28;20030;-60
2023/04/23 11:41:29;;;;;;;74.85;4.88;;;;;;;;;;4984965;28;20584;-60
2023/04/23 11:43:55;;;;;;;124.15;7.10;;;;;;;;;;4984990;28;20034;-60
2023/04/23 11:46:20;;;;;;;79.25;5.15;;;;;;;;;;4984143;28;20037;-60
2023/04/23 11:48:47;;;;;;;75.40;4.78;;;;;;;;;;4983444;28;20503;-60
2023/04/23 11:51:12;;;;;;;64.95;4.50;;;;;;;;;;4984836;28;20048;-60
2023/04/23 11:53:43;;;;;;;97.78;6.05;;;;;;;;;;4987263;28;20022;-60
2023/04/23 11:56:09;;;;;;;80.28;4.97;;;;;;;;;;4986547;28;20022;-59
2023/04/23 11:58:34;;;;;;;96.88;5.90;;;;;;;;;;4987087;28;20072;-58
2023/04/23 12:01:01;;;;;;;68.47;4.47;;;;;;;;;;4986759;28;20031;-59
2023/04/23 12:03:29;;;;;;;68.65;4.80;;;;;;;;;;4986858;28;20639;-58
2023/04/23 12:05:55;;;;;;;86.50;5.22;;;;;;;;;;4986024;28;20038;-59
2023/04/23 12:08:20;;;;;;;77.57;4.80;;;;;;;;;;4987237;28;20032;-60
2023/04/23 12:10:48;;;;;;;65.40;4.47;;;;;;;;;;4987569;28;20064;-60
2023/04/23 12:13:21;;;;;;;70.85;4.72;;;;;;;;;;4983944;28;20153;-61
2023/04/23 12:15:48;;;;;;;75.38;4.65;;;;;;;;;;4981955;28;20035;-60
2023/04/23 12:18:14;;;;;;;83.07;5.07;;;;;;;;;;4982640;28;20150;-60
2023/04/23 12:20:39;;;;;;;83.03;5.28;;;;;;;;;;4983386;28;20739;-60
2023/04/23 12:23:08;;;;;;;72.57;4.60;;;;;;;;;;4984720;28;20033;-58
2023/04/23 12:25:34;;;;;;;92.88;5.70;;;;;;;;;;4985571;28;20119;-59
2023/04/23 12:27:59;;;;;;;65.78;4.45;;;;;;;;;;4986607;28;20440;-60
2023/04/23 12:30:28;;;;;;;84.53;5.13;;;;;;;;;;4985396;28;20489;-60
2023/04/23 12:32:58;;;;;;;55.58;3.58;;;;;;;;;;4985006;28;20531;-60
2023/04/23 12:35:36;;;;;;;101.82;5.93;;;;;;;;;;4984330;28;20043;-58
2023/04/23 12:38:03;;;;;;;79.63;4.80;;;;;;;;;;4985792;28;20713;-58
2023/04/23 12:40:28;;;;;;;86.57;5.22;;;;;;;;;;4982510;28;20038;-59
2023/04/23 12:42:54;;;;;;;74.70;4.63;;;;;;;;;;4984795;28;20040;-61
2023/04/23 12:45:19;;;;;;;91.67;5.57;;;;;;;;;;4983468;28;20105;-61
2023/04/23 12:47:44;;;;;;;83.07;4.95;;;;;;;;;;4981365;28;20788;-60
2023/04/23 12:50:10;;;;;;;81.45;5.00;;;;;;;;;;4984450;28;20025;-60
2023/04/23 12:52:35;;;;;;;85.45;4.93;;;;;;;;;;4983919;28;20027;-61
2023/04/23 12:55:01;;;;;;;81.90;5.05;;;;;;;;;;4985121;28;20562;-61
2023/04/23 12:57:26;;;;;;;75.35;4.50;;;;;;;;;;4983271;28;20041;-61
2023/04/23 12:59:53;;;;;;;87.25;5.35;;;;;;;;;;4983577;28;20029;-61
2023/04/23 13:02:18;;;;;;;91.47;5.55;;;;;;;;;;4984231;28;20034;-59
2023/04/23 13:04:44;;;;;;;86.47;5.07;;;;;;;;;;4982867;28;20417;-59
2023/04/23 13:07:09;;;;;;;77.50;5.03;;;;;;;;;;4985841;28;20289;-61
2023/04/23 13:09:34;;;;;;;71.20;4.72;;;;;;;;;;4986206;28;20545;-60
2023/04/23 13:12:01;;;;;;;74.13;4.72;;;;;;;;;;4984039;28;20397;-58
2023/04/23 13:14:26;;;;;;;78.15;4.90;;;;;;;;;;4984985;28;20014;-60
2023/04/23 13:16:52;;;;;;;51.35;3.75;;;;;;;;;;4985134;28;20319;-61
2023/04/23 13:19:17;;;;;;;145.15;7.88;;;;;;;;;;4958939;28;20014;-61
2023/04/23 13:21:43;;;;;;;120.55;7.03;;;;;;;;;;4980156;28;20041;-59
2023/04/23 13:24:08;;;;;;;131.65;7.25;;;;;;;;;;4980965;28;20087;-61
2023/04/23 13:26:33;;;;;;;150.77;7.90;;;;;;;;;;4980341;28;20449;-60
2023/04/23 13:28:59;;;;;;;102.18;6.43;;;;;;;;;;4982297;28;20393;-60
2023/04/23 13:31:25;;;;;;;106.05;6.45;;;;;;;;;;4980984;28;20046;-61
2023/04/23 13:33:50;;;;;;;149.02;8.27;;;;;;;;;;4980707;28;20022;-58
2023/04/23 13:36:15;;;;;;;75.35;4.72;;;;;;;;;;4983812;28;20026;-59
2023/04/23 13:38:40;;;;;;;89.17;5.40;;;;;;;;;;4983490;28;20101;-57
2023/04/23 13:41:06;;;;;;;72.90;4.57;;;;;;;;;;4981795;28;20366;-59
2023/04/23 13:43:31;;;;;;;80.57;4.87;;;;;;;;;;4982790;28;20641;-57
2023/04/23 13:45:56;;;;;;;88.17;5.27;;;;;;;;;;4980534;28;20691;-64
2023/04/23 13:48:22;;;;;;;65.13;4.15;;;;;;;;;;4981041;28;20296;-61
2023/04/23 13:50:47;;;;;;;66.82;4.30;;;;;;;;;;4980050;28;20105;-62
2023/04/23 13:53:13;;;;;;;55.75;3.85;;;;;;;;;;4982836;28;20044;-61
2023/04/23 13:55:38;;;;;;;83.25;5.68;;;;;;;;;;4982026;28;20126;-57
2023/04/23 13:58:04;;;;;;;96.43;5.72;;;;;;;;;;4981354;28;20034;-59
2023/04/23 14:00:29;;;;;;;113.03;6.18;;;;;;;;;;4981989;28;20346;-59
2023/04/23 14:02:55;;;;;;;119.65;6.68;;;;;;;;;;4981038;28;20150;-59
2023/04/23 14:05:20;;;;;;;113.55;6.20;;;;;;;;;;4980601;28;20105;-59
2023/04/23 14:07:45;;;;;;;114.35;5.93;;;;;;;;;;4983379;28;20022;-57
2023/04/23 14:10:11;;;;;;;111.70;6.50;;;;;;;;;;4985720;28;20022;-60
2023/04/23 14:12:37;;;;;;;127.22;6.80;;;;;;;;;;4983865;28;20358;-59
2023/04/23 14:15:03;;;;;;;100.65;6.05;;;;;;;;;;4983884;28;20695;-59
2023/04/23 14:17:28;;;;;;;138.48;7.30;;;;;;;;;;4984012;28;20644;-59